Terminal Aerodrome Forecast
Issued by NWS Wilmington, NC

Home | Current Version | Previous Version | Text Only | Print | Product List | Glossary On
Versions: 1 2 3 4 5 6 7 8 9 10 11 12 13 14 15 16 17 18 19 20 21 22 23 24 25 26 27 28 29 30 31 32 33
000
FTUS42 KILM 050900 AAA
TAFILM
TAF AMD
KILM 050907Z 0509/0606 21013G19KT P6SM SCT010 WS010/22035KT
     FM051400 23014G24KT P6SM SCT015 SCT050
     FM052200 36014G23KT 5SM -SHRA OVC012=

USA.gov is the U.S. government's official web portal to all federal, state and local government web resources and services.